Lyons, OR (97358)

8:03 PM PDT on September 03, 2015 (GMT -0700)
McCully Mtn | | Change Station
CLOSE
Current Station
Personal Weather Station
Location: Lyons, OR
Elevation: 1654 ft
Nearby Weather Stations

Elev 1654 ft 44.75 °N, 122.61 °W | Updated 1 minute ago

Mostly Cloudy
Mostly Cloudy
52.5 °F
Feels Like 52.5 °F
N
0.0
Wind Variable Wind from South

Today
High -- | Low -- °F
--% Chance of Precip.
Yesterday
High -- | Low -- °F
Precip. -- in
6:34 AM 7:43 PM
Waning Gibbous, 64% visible
Pressure 29.98 in
Visibility 10.0 miles
Clouds Overcast 6500 ft
Dew Point 46 °F
Humidity 77%
Rainfall 0.19 in
Snow Depth Not available.
UV 0 out of 12
Pollen 2.50 out of 12
Air Quality Not available.
Flu Activity Not available.
METAR KSLE 040256Z 36007KT 10SM OVC065 17/09 A2998 RMK AO2 SLP150 T01720089 56004
Pressure 29.98 in
Visibility 10.0 miles
Clouds Overcast 6500 ft
Dew Point 46 °F
Humidity 77%
Rainfall 0.19 in
Snow Depth Not available.
UV 0 out of 12
Pollen 2.50 out of 12
Air Quality Not available.
Flu Activity Not available.
METAR KSLE 040256Z 36007KT 10SM OVC065 17/09 A2998 RMK AO2 SLP150 T01720089 56004

10-Day Weather Forecast

×

Almanac

Astronomy

Sep. 03, 2015 Rise Set
Actual Time
Civil Twilight
Nautical Twilight
Astronomical Twilight
Moon
Length of Visible Light
Length of Day
Tomorrow will be .
, % of the Moon is Illuminated

Today's Extremes

State Highs State Lows

Community

WunderPhotos

Upload Photos

1,852,108 photos uploaded!

WunderBlogs® & News

Nearby

Air Quality

  Air Quality AQ Index Pollutant
Not available.

Snow Depth

Station Depth Elevation

Earthquake Activity

City Distance Mag. Time & Date
Minimum magnitude displayed is 2.5.

Coastal Water Temperatures

Place Temperature

Stations

Nearby Weather Stations

Station Location Temp. Windchill Dew Point Humidity Wind Precip. Elev Updated Type